Cascade, Maryland
Current Conditions -  °F | °C
As of 5:53 PM on Tuesday 21 Oct 2014 (Local Time) from KRYT Reporting Station
Light Rain Light Rain  
Wind Chill: 54°   Ceiling: 6000
Heat Index: 54°   Visibility: 8mi
Dew Point: 47°   Wind: 8mph
Humidity: 77%   Direction: 20°NNE
Pressure: 29.86"   Gusts: NA
Location:  39.71°N, 77.49°W
Report Text: KRYT 212153Z AUTO 02007KT 8SM -RA BKN060 OVC095 12/08 A2986 RMK AO2 RAB48 SLP113 P0001 T01220083 $
Loading
Personal Weather Stations






























Interactive Weather Map
Tropical Storm Tracking
New forecast layout! Learn more

10-Day Weather Forecast

Advertisements
Track Severe Weather on mobile